Etusivu
METAR-TAF:

METAR-TAF

Lentoasemat :

Halmstad, Ruotsi

Leveyspiiri: 56-41N, Pituuspiiri: 012-50E, korkeus merenpinnasta: 30 m

Tämänhetkinen sää

Tämä raportti tehtiin 42 minuuttia sitten, kello 11.50 UTC
Tuuli 7 kn idästä/kaakosta, vaihdellen idän ja etelän/kaakon välillä
Lämpötila 11°C
Kosteus 87%
Ilmanpaine 1018 hPa
Näkyvyys 10 km tai enemmän
Hajonneita pilviä 1000 ft:n korkeudessa

METAR: ESMT 191150Z 12007KT 090V160 9999 BKN010 11/09 Q1018

Aika: 14:32 (12:32 UTC)

Sääennuste

Tämä raportti tehtiin 1 tunti ja 35 minuuttia sitten, kello 10.57 UTC
Ennuste voimassa 19. päivästä klo 12 UTC - 19. päivään klo 21 UTC
Tuuli 8 kn idästä/kaakosta
Näkyvyys 10 km tai enemmän
Muutamia pilviä 800 ft:n korkeudessa
Hajonneita pilviä 3000 ft:n korkeudessa
Ajoittain
19. päivästä klo 12 UTC - 19. päivään klo 21 UTC
Hajonneita pilviä 800 ft:n korkeudessa

TAF: ESMT 191057Z 1912/1921 11008KT 9999 FEW008 BKN030 TEMPO 1912/1921 BKN008

Säähavainnot ja -ennusteet yli 4000 lentoasemalta (METAR- ja TAF-raportit).

Käytössä olevat sääasemat on merkitty karttaan keltaisilla ja punaisilla pisteillä.

Aseta hiiri pisteen päälle nähdäksesi sääaseman nimen.

Klikkaa sitten nähdäksesi säähavainnot ja -ennusteet.

Kartan vaihtaminen: klikkaa mustalla rastilla varustettuja vihreitä pisteitä, niin voit zoomata sisään; viivalla varustettua vihreää pistettä, niin voit zoomata ulos tai vihreitä nuolia, niin pääset viereisille kartoille.


METAR-TAF: